createdAt,value
2023-01-04T00:02:22.583Z,8.35
2023-01-04T00:04:49.467Z,8.33
2023-01-04T00:07:16.080Z,8.16
2023-01-04T00:09:42.655Z,8.13
2023-01-04T00:12:09.244Z,8.24
2023-01-04T00:14:35.802Z,8.04
2023-01-04T00:17:02.421Z,8.25
2023-01-04T00:19:29.007Z,8.10
2023-01-04T00:21:55.660Z,7.96
2023-01-04T00:24:22.386Z,7.96
2023-01-04T00:26:49.032Z,8.01
2023-01-04T00:29:15.899Z,7.96
2023-01-04T00:31:44.577Z,8.06
2023-01-04T00:34:14.731Z,7.94
2023-01-04T00:36:41.781Z,8.19
2023-01-04T00:39:14.699Z,8.32
2023-01-04T00:42:01.202Z,8.12
2023-01-04T00:44:29.509Z,8.27
2023-01-04T00:46:56.149Z,8.21
2023-01-04T00:49:23.369Z,8.01
2023-01-04T00:51:50.187Z,7.88
2023-01-04T00:54:17.462Z,7.69
2023-01-04T00:56:44.803Z,7.95
2023-01-04T00:59:17.328Z,7.86
2023-01-04T01:01:45.183Z,7.28
2023-01-04T01:04:13.906Z,7.27
2023-01-04T01:06:40.992Z,7.62
2023-01-04T01:09:08.530Z,7.76
2023-01-04T01:11:36.760Z,7.57
2023-01-04T01:14:04.042Z,7.48
2023-01-04T01:19:17.458Z,7.45
2023-01-04T01:21:44.147Z,7.34
2023-01-04T01:24:16.969Z,7.42
2023-01-04T01:26:43.692Z,7.60
2023-01-04T01:29:10.343Z,7.21
2023-01-04T01:31:37.044Z,7.37
2023-01-04T01:34:03.740Z,7.51
2023-01-04T01:36:30.279Z,7.54
2023-01-04T01:38:56.890Z,7.53
2023-01-04T01:41:28.799Z,7.86
2023-01-04T01:44:02.912Z,7.91
2023-01-04T01:46:35.832Z,7.91
2023-01-04T01:49:09.335Z,7.96
2023-01-04T01:51:36.012Z,7.96
2023-01-04T01:54:09.660Z,7.93
2023-01-04T01:56:39.661Z,7.99
2023-01-04T01:59:07.073Z,7.86
2023-01-04T02:01:34.008Z,7.77
2023-01-04T02:04:02.659Z,7.88
2023-01-04T02:06:35.729Z,7.65
2023-01-04T02:09:03.423Z,7.80
2023-01-04T02:11:30.543Z,7.69
2023-01-04T02:14:18.355Z,7.66
2023-01-04T02:16:50.675Z,7.95
2023-01-04T02:19:44.775Z,7.88
2023-01-04T02:22:20.575Z,7.84
2023-01-04T02:25:05.518Z,7.90
2023-01-04T02:27:49.365Z,7.87
2023-01-04T02:30:29.320Z,7.97
2023-01-04T02:33:05.053Z,7.99
2023-01-04T02:35:43.642Z,8.02
2023-01-04T02:38:34.413Z,7.62
2023-01-04T02:41:48.738Z,8.00
2023-01-04T02:44:37.352Z,7.97
2023-01-04T02:47:11.650Z,7.81
2023-01-04T02:50:02.402Z,7.73
2023-01-04T02:52:31.681Z,7.75
2023-01-04T02:54:58.767Z,7.71
2023-01-04T02:57:37.383Z,7.43
2023-01-04T03:00:17.831Z,7.93
2023-01-04T03:03:15.691Z,7.93
2023-01-04T03:06:16.471Z,7.88
2023-01-04T03:08:53.148Z,7.92
2023-01-04T03:11:38.290Z,7.57
2023-01-04T03:14:31.680Z,7.91
2023-01-04T03:17:10.757Z,7.79
2023-01-04T03:19:55.116Z,7.56
2023-01-04T03:23:00.163Z,8.12
2023-01-04T03:25:53.573Z,7.54
2023-01-04T03:28:41.246Z,8.16
2023-01-04T03:31:48.480Z,7.66
2023-01-04T03:34:33.846Z,7.75
2023-01-04T03:37:30.711Z,8.27
2023-01-04T03:40:31.995Z,8.02
2023-01-04T03:43:39.484Z,8.20
2023-01-04T03:46:31.114Z,8.33
2023-01-04T03:49:09.019Z,8.19
2023-01-04T03:51:38.011Z,8.17
2023-01-04T03:54:08.960Z,8.35
2023-01-04T03:56:38.096Z,8.26
2023-01-04T03:59:05.581Z,8.06
2023-01-04T04:01:32.383Z,8.28
2023-01-04T04:04:17.599Z,8.19
2023-01-04T04:07:02.793Z,8.17
2023-01-04T04:09:29.570Z,8.09
2023-01-04T04:11:56.669Z,8.11
2023-01-04T04:14:23.306Z,8.17
2023-01-04T04:16:50.060Z,8.04
2023-01-04T04:19:16.921Z,7.96
2023-01-04T04:21:43.566Z,7.93
2023-01-04T04:24:30.395Z,8.09
2023-01-04T04:26:57.243Z,7.90
2023-01-04T04:29:24.505Z,8.03
2023-01-04T04:31:51.927Z,8.05
2023-01-04T04:34:18.897Z,7.77
2023-01-04T04:36:45.699Z,7.95
2023-01-04T04:39:12.415Z,7.85
2023-01-04T04:41:39.819Z,7.91
2023-01-04T04:44:12.025Z,7.87
2023-01-04T04:46:39.094Z,7.75
2023-01-04T04:49:07.096Z,7.56
2023-01-04T04:51:34.047Z,7.82
2023-01-04T04:54:00.851Z,7.56
2023-01-04T04:56:27.586Z,7.55
2023-01-04T04:58:54.261Z,7.56
2023-01-04T05:01:20.959Z,7.54
2023-01-04T05:03:48.041Z,7.63
2023-01-04T05:06:14.987Z,7.07
2023-01-04T05:08:41.680Z,7.39
2023-01-04T05:11:12.932Z,7.17
2023-01-04T05:13:40.333Z,7.34
2023-01-04T05:16:09.266Z,7.35
2023-01-04T05:18:36.541Z,7.29
2023-01-04T05:21:03.346Z,7.36
2023-01-04T05:23:29.979Z,7.03
2023-01-04T05:26:01.271Z,7.26
2023-01-04T05:28:28.036Z,7.30
2023-01-04T05:30:55.860Z,7.01
2023-01-04T05:33:27.022Z,7.27
2023-01-04T05:35:55.467Z,7.31
2023-01-04T05:38:22.530Z,7.28
2023-01-04T05:40:50.023Z,7.29
2023-01-04T05:43:18.465Z,7.31
2023-01-04T05:45:49.758Z,7.15
2023-01-04T05:48:17.032Z,7.11
2023-01-04T05:50:45.685Z,7.18
2023-01-04T05:53:14.078Z,7.12
2023-01-04T05:55:40.788Z,6.59
2023-01-04T05:58:07.571Z,6.67
2023-01-04T06:00:34.265Z,6.59
2023-01-04T06:03:01.249Z,6.64
2023-01-04T06:05:28.129Z,6.56
2023-01-04T06:07:54.966Z,6.39
2023-01-04T06:10:21.648Z,6.57
2023-01-04T06:12:48.798Z,6.41
2023-01-04T06:15:15.556Z,6.42
2023-01-04T06:17:42.353Z,6.32
2023-01-04T06:20:10.444Z,6.52
2023-01-04T06:22:37.828Z,6.33
2023-01-04T06:25:05.386Z,6.87
2023-01-04T06:27:32.065Z,6.43
2023-01-04T06:29:58.774Z,6.49
2023-01-04T06:32:25.484Z,6.56
2023-01-04T06:34:52.266Z,6.39
2023-01-04T06:37:18.946Z,6.25
2023-01-04T06:39:45.611Z,6.49
2023-01-04T06:42:32.442Z,6.47
2023-01-04T06:44:59.118Z,6.53
2023-01-04T06:47:25.714Z,6.71
2023-01-04T06:49:52.784Z,6.56
2023-01-04T06:52:19.705Z,6.78
2023-01-04T06:54:46.423Z,6.84
2023-01-04T06:57:13.747Z,6.52
2023-01-04T06:59:40.297Z,6.63
2023-01-04T07:02:07.075Z,6.93
2023-01-04T07:04:33.973Z,6.71
2023-01-04T07:07:00.806Z,6.63
2023-01-04T07:09:27.377Z,6.83
2023-01-04T07:11:54.141Z,6.80
2023-01-04T07:14:20.684Z,6.75
2023-01-04T07:16:47.400Z,6.86
2023-01-04T07:19:14.120Z,6.91
2023-01-04T07:21:41.303Z,7.07
2023-01-04T07:24:07.892Z,6.80
2023-01-04T07:26:35.070Z,7.03
2023-01-04T07:29:17.479Z,7.16
2023-01-04T07:31:49.155Z,7.08
2023-01-04T07:34:17.056Z,6.97
2023-01-04T07:36:43.734Z,6.85
2023-01-04T07:39:12.533Z,6.96
2023-01-04T07:41:40.473Z,7.10
2023-01-04T07:44:09.459Z,6.85
2023-01-04T07:46:36.625Z,6.87
2023-01-04T07:49:04.372Z,7.02
2023-01-04T07:51:32.561Z,6.60
2023-01-04T07:54:00.149Z,7.10
2023-01-04T07:56:26.965Z,6.90
2023-01-04T07:58:57.082Z,6.96
2023-01-04T08:01:25.232Z,6.91
2023-01-04T08:03:52.962Z,7.21
2023-01-04T08:06:21.373Z,7.25
2023-01-04T08:08:48.803Z,7.33
2023-01-04T08:11:18.052Z,7.37
2023-01-04T08:13:44.953Z,7.49
2023-01-04T08:16:21.067Z,7.89
2023-01-04T08:18:49.183Z,7.92
2023-01-04T08:21:15.734Z,7.99
2023-01-04T08:23:42.504Z,8.14
2023-01-04T08:26:13.336Z,8.11
2023-01-04T08:28:40.535Z,8.28
2023-01-04T08:31:10.596Z,8.48
2023-01-04T08:33:38.710Z,8.21
2023-01-04T08:36:08.269Z,8.73
2023-01-04T08:41:47.229Z,8.42
2023-01-04T08:44:08.213Z,8.43
2023-01-04T08:46:34.880Z,9.11
2023-01-04T08:49:01.475Z,9.22
2023-01-04T08:51:28.062Z,9.26
2023-01-04T08:53:54.747Z,8.88
2023-01-04T08:56:21.270Z,9.19
2023-01-04T08:58:48.034Z,9.68
2023-01-04T09:01:14.796Z,9.42
2023-01-04T09:03:42.103Z,9.64
2023-01-04T09:06:14.708Z,10.15
2023-01-04T09:08:42.773Z,10.53
2023-01-04T09:11:12.699Z,11.09
2023-01-04T09:13:40.259Z,11.13
2023-01-04T09:16:10.404Z,11.16
2023-01-04T09:18:37.219Z,11.52
2023-01-04T09:21:14.893Z,12.39
2023-01-04T09:23:42.867Z,12.62
2023-01-04T09:26:12.877Z,13.24
2023-01-04T09:28:39.911Z,13.15
2023-01-04T09:31:12.599Z,12.78
2023-01-04T09:34:12.901Z,12.83
2023-01-04T09:36:26.824Z,13.23
2023-01-04T09:38:53.571Z,13.11
2023-01-04T09:41:43.264Z,12.55
2023-01-04T09:44:09.833Z,12.74
2023-01-04T09:46:48.794Z,12.88
2023-01-04T09:49:34.927Z,13.49
2023-01-04T09:52:17.430Z,12.93
2023-01-04T09:55:36.300Z,12.86
2023-01-04T09:57:54.524Z,14.39
2023-01-04T10:00:45.777Z,14.60
2023-01-04T10:03:24.714Z,15.08
2023-01-04T10:05:54.853Z,13.16
2023-01-04T10:08:21.900Z,13.77
2023-01-04T10:10:51.979Z,14.31
2023-01-04T10:13:32.901Z,15.16
2023-01-04T10:17:01.704Z,15.05
2023-01-04T10:22:58.717Z,15.17
2023-01-04T10:25:47.677Z,14.48
2023-01-04T10:28:20.740Z,14.66
2023-01-04T10:31:40.925Z,14.54
2023-01-04T10:34:18.764Z,14.21
2023-01-04T10:36:47.568Z,13.84
2023-01-04T10:39:32.026Z,12.94
2023-01-04T10:42:31.231Z,12.24
2023-01-04T10:45:41.306Z,12.54
2023-01-04T10:48:23.220Z,12.81
2023-01-04T10:51:09.319Z,12.54
2023-01-04T10:53:57.202Z,12.24
2023-01-04T10:56:29.609Z,12.43
2023-01-04T10:58:56.191Z,11.91
2023-01-04T11:01:29.989Z,12.04
2023-01-04T11:03:56.784Z,11.96
2023-01-04T11:06:31.232Z,11.78
2023-01-04T11:09:11.479Z,12.09
2023-01-04T11:11:43.100Z,11.73
2023-01-04T11:14:10.635Z,11.84
2023-01-04T11:16:41.839Z,11.64
2023-01-04T11:19:10.183Z,11.29
2023-01-04T11:21:46.836Z,11.36
2023-01-04T11:24:31.583Z,11.88
2023-01-04T11:27:04.323Z,11.97
2023-01-04T11:30:13.606Z,12.19
2023-01-04T11:32:53.073Z,12.62
2023-01-04T11:35:57.066Z,12.98
2023-01-04T11:38:27.787Z,12.75
2023-01-04T11:41:05.997Z,13.18
2023-01-04T11:43:35.694Z,12.76
2023-01-04T11:46:17.714Z,12.95
2023-01-04T11:48:46.659Z,12.73
2023-01-04T11:51:25.397Z,12.96
2023-01-04T11:54:15.137Z,13.27
2023-01-04T11:57:11.673Z,13.08
2023-01-04T11:59:39.376Z,12.45
2023-01-04T12:05:29.988Z,12.98
2023-01-04T12:07:58.530Z,12.82
2023-01-04T12:10:27.677Z,12.77
2023-01-04T12:12:55.741Z,12.81
2023-01-04T12:16:05.678Z,13.24
2023-01-04T12:18:39.210Z,13.29
2023-01-04T12:21:06.291Z,13.07
2023-01-04T12:23:34.198Z,13.26
2023-01-04T12:26:01.874Z,13.27
2023-01-04T12:28:29.875Z,13.78
2023-01-04T12:31:19.800Z,14.12
2023-01-04T12:33:56.188Z,14.08
2023-01-04T12:36:38.233Z,14.40
2023-01-04T12:39:14.349Z,15.32
2023-01-04T12:41:40.963Z,15.90
2023-01-04T12:44:47.857Z,15.49
2023-01-04T12:47:39.371Z,16.56
2023-01-04T12:50:08.700Z,17.03
2023-01-04T12:53:02.270Z,16.96
2023-01-04T12:55:31.450Z,17.59
2023-01-04T12:57:59.291Z,17.97
2023-01-04T13:00:50.785Z,18.24
2023-01-04T13:03:18.258Z,18.81
2023-01-04T13:06:03.211Z,18.35
2023-01-04T13:08:33.418Z,18.66
2023-01-04T13:11:04.231Z,18.97
2023-01-04T13:13:41.998Z,19.61
2023-01-04T13:16:30.283Z,18.41
2023-01-04T13:19:09.956Z,18.43
2023-01-04T13:21:42.690Z,19.11
2023-01-04T13:24:22.070Z,18.63
2023-01-04T13:26:48.998Z,19.31
2023-01-04T13:29:27.284Z,19.59
2023-01-04T13:32:02.446Z,19.43
2023-01-04T13:38:41.802Z,19.98
2023-01-04T13:41:21.927Z,19.94
2023-01-04T13:44:02.570Z,20.06
2023-01-04T13:46:29.312Z,19.88
2023-01-04T13:49:01.772Z,19.37
2023-01-04T13:51:36.992Z,18.96
2023-01-04T13:54:07.358Z,18.57
2023-01-04T13:56:35.208Z,18.01
2023-01-04T13:59:03.109Z,18.32
2023-01-04T14:01:33.163Z,18.31
2023-01-04T14:04:06.114Z,18.09
2023-01-04T14:06:44.173Z,18.13
2023-01-04T14:09:16.512Z,18.45
2023-01-04T14:12:06.841Z,18.66
2023-01-04T14:15:03.386Z,18.13
2023-01-04T14:17:36.087Z,18.44
2023-01-04T14:20:04.844Z,18.61
2023-01-04T14:22:38.058Z,18.65
2023-01-04T14:25:48.221Z,18.51
2023-01-04T14:28:29.731Z,18.57
2023-01-04T14:30:59.136Z,18.30
2023-01-04T14:33:32.544Z,18.67
2023-01-04T14:36:02.110Z,18.40
2023-01-04T14:38:29.379Z,18.24
2023-01-04T14:40:55.875Z,17.48
2023-01-04T14:43:37.654Z,16.90
2023-01-04T14:46:04.326Z,16.59
2023-01-04T14:48:31.150Z,16.31
2023-01-04T14:51:00.052Z,16.30
2023-01-04T14:53:27.141Z,16.53
2023-01-04T14:55:54.723Z,15.87
2023-01-04T14:58:21.877Z,15.41
2023-01-04T15:00:49.128Z,15.57
2023-01-04T15:03:16.089Z,15.46
2023-01-04T15:05:45.705Z,15.35
2023-01-04T15:08:13.166Z,15.27
2023-01-04T15:10:39.770Z,15.15
2023-01-04T15:13:07.295Z,15.00
2023-01-04T15:15:34.446Z,14.74
2023-01-04T15:18:01.151Z,14.67
2023-01-04T15:20:27.697Z,14.50
2023-01-04T15:22:54.259Z,14.29
2023-01-04T15:25:20.974Z,13.93
2023-01-04T15:27:47.471Z,13.75
2023-01-04T15:30:14.153Z,13.37
2023-01-04T15:32:41.363Z,13.29
2023-01-04T15:35:08.414Z,13.18
2023-01-04T15:37:35.032Z,13.04
2023-01-04T15:40:03.071Z,12.71
2023-01-04T15:42:49.081Z,12.57
2023-01-04T15:45:15.858Z,12.38
2023-01-04T15:47:42.503Z,11.95
2023-01-04T15:50:09.339Z,11.96
2023-01-04T15:52:35.937Z,11.69
2023-01-04T15:55:02.589Z,11.68
2023-01-04T15:57:29.156Z,11.54
2023-01-04T15:59:55.711Z,11.37
2023-01-04T16:02:22.445Z,11.47
2023-01-04T16:04:49.484Z,11.34
2023-01-04T16:07:16.493Z,11.23
2023-01-04T16:09:43.199Z,11.22
2023-01-04T16:12:28.537Z,11.00
2023-01-04T16:14:55.071Z,11.11
2023-01-04T16:17:21.636Z,11.07
2023-01-04T16:19:48.212Z,10.96
2023-01-04T16:22:14.751Z,10.80
2023-01-04T16:27:34.728Z,10.89
2023-01-04T16:30:03.269Z,10.85
2023-01-04T16:32:29.831Z,10.72
2023-01-04T16:34:56.695Z,10.82
2023-01-04T16:37:28.085Z,10.59
2023-01-04T16:40:06.198Z,10.70
2023-01-04T16:42:33.242Z,10.48
2023-01-04T16:45:01.079Z,10.43
2023-01-04T16:47:27.719Z,10.35
2023-01-04T16:49:54.508Z,10.27
2023-01-04T16:52:21.386Z,10.34
2023-01-04T16:54:48.797Z,10.43
2023-01-04T16:57:15.479Z,10.32
2023-01-04T16:59:42.915Z,10.17
2023-01-04T17:02:12.245Z,10.44
2023-01-04T17:04:38.938Z,10.35
2023-01-04T17:07:06.301Z,10.28
2023-01-04T17:09:32.922Z,10.22
2023-01-04T17:15:00.648Z,10.03
2023-01-04T17:17:33.997Z,10.00
2023-01-04T17:20:00.547Z,9.99
2023-01-04T17:22:33.878Z,9.94
2023-01-04T17:25:00.963Z,9.79
2023-01-04T17:27:27.587Z,9.74
2023-01-04T17:29:54.164Z,9.91
2023-01-04T17:32:20.670Z,9.98
2023-01-04T17:34:49.359Z,9.84
2023-01-04T17:37:15.878Z,9.82
2023-01-04T17:39:42.471Z,9.55
2023-01-04T17:42:09.813Z,9.70
2023-01-04T17:44:36.381Z,9.70
2023-01-04T17:47:02.902Z,9.72
2023-01-04T17:49:32.110Z,9.60
2023-01-04T17:51:59.495Z,9.62
2023-01-04T17:54:26.813Z,9.38
2023-01-04T17:56:53.424Z,9.52
2023-01-04T17:59:20.064Z,9.43
2023-01-04T18:01:46.796Z,9.32
2023-01-04T18:04:13.848Z,9.41
2023-01-04T18:06:40.554Z,9.19
2023-01-04T18:09:07.989Z,9.29
2023-01-04T18:11:35.373Z,9.31
2023-01-04T18:14:05.832Z,9.26
2023-01-04T18:16:56.244Z,9.20
2023-01-04T18:19:29.239Z,9.09
2023-01-04T18:21:56.193Z,8.87
2023-01-04T18:24:35.814Z,8.88
2023-01-04T18:27:21.394Z,8.94
2023-01-04T18:29:48.962Z,8.66
2023-01-04T18:32:15.511Z,8.75
2023-01-04T18:34:42.044Z,8.67
2023-01-04T18:37:08.656Z,8.68
2023-01-04T18:39:35.334Z,8.45
2023-01-04T18:42:01.920Z,8.65
2023-01-04T18:44:33.465Z,8.56
2023-01-04T18:47:00.786Z,8.52
2023-01-04T18:49:27.356Z,8.37
2023-01-04T18:51:54.008Z,8.54
2023-01-04T18:54:21.437Z,8.54
2023-01-04T18:56:48.227Z,8.52
2023-01-04T18:59:17.284Z,8.30
2023-01-04T19:01:45.453Z,8.22
2023-01-04T19:04:12.819Z,8.41
2023-01-04T19:06:40.629Z,8.20
2023-01-04T19:09:07.505Z,8.31
2023-01-04T19:11:34.782Z,8.25
2023-01-04T19:14:02.139Z,8.18
2023-01-04T19:16:31.078Z,8.09
2023-01-04T19:18:59.668Z,8.08
2023-01-04T19:21:26.611Z,8.02
2023-01-04T19:23:53.489Z,7.78
2023-01-04T19:26:21.428Z,7.87
2023-01-04T19:28:48.509Z,7.98
2023-01-04T19:31:16.155Z,7.98
2023-01-04T19:33:42.776Z,7.84
2023-01-04T19:36:11.128Z,7.91
2023-01-04T19:38:38.292Z,7.73
2023-01-04T19:41:05.812Z,7.61
2023-01-04T19:43:33.088Z,7.80
2023-01-04T19:46:00.128Z,7.50
2023-01-04T19:48:27.071Z,7.42
2023-01-04T19:51:12.611Z,7.62
2023-01-04T19:53:39.657Z,7.59
2023-01-04T19:56:07.122Z,7.54
2023-01-04T19:58:34.248Z,7.54
2023-01-04T20:01:00.971Z,7.54
2023-01-04T20:03:27.889Z,7.34
2023-01-04T20:05:55.244Z,7.30
2023-01-04T20:08:22.467Z,7.49
2023-01-04T20:10:56.886Z,7.51
2023-01-04T20:13:23.839Z,7.38
2023-01-04T20:15:53.319Z,7.36
2023-01-04T20:18:20.635Z,7.42
2023-01-04T20:20:48.209Z,7.40
2023-01-04T20:23:16.858Z,7.41
2023-01-04T20:25:47.160Z,7.29
2023-01-04T20:28:14.642Z,7.20
2023-01-04T20:30:41.940Z,7.13
2023-01-04T20:33:09.416Z,7.14
2023-01-04T20:35:42.029Z,7.01
2023-01-04T20:38:09.898Z,6.99
2023-01-04T20:40:37.618Z,6.98
2023-01-04T20:43:23.364Z,6.78
2023-01-04T20:45:50.123Z,6.82
2023-01-04T20:48:16.772Z,6.80
2023-01-04T20:50:43.531Z,6.97
2023-01-04T20:53:11.515Z,6.88
2023-01-04T20:55:40.343Z,6.89
2023-01-04T20:58:15.627Z,6.92
2023-01-04T21:00:43.507Z,6.91
2023-01-04T21:03:11.288Z,6.77
2023-01-04T21:05:40.133Z,6.74
2023-01-04T21:08:07.331Z,6.57
2023-01-04T21:10:35.198Z,6.82
2023-01-04T21:13:02.061Z,6.72
2023-01-04T21:15:28.749Z,6.66
2023-01-04T21:17:55.374Z,6.54
2023-01-04T21:20:22.201Z,6.72
2023-01-04T21:22:48.762Z,6.59
2023-01-04T21:25:15.489Z,6.47
2023-01-04T21:27:42.160Z,6.52
2023-01-04T21:30:09.771Z,6.46
2023-01-04T21:32:36.394Z,6.60
2023-01-04T21:35:03.039Z,6.56
2023-01-04T21:37:29.866Z,6.49
2023-01-04T21:39:56.481Z,6.51
2023-01-04T21:42:23.002Z,6.45
2023-01-04T21:44:49.694Z,6.34
2023-01-04T21:47:16.379Z,6.35
2023-01-04T21:49:44.166Z,6.38
2023-01-04T21:52:11.502Z,6.28
2023-01-04T21:54:38.993Z,6.19
2023-01-04T21:57:08.212Z,6.25
2023-01-04T21:59:36.301Z,6.25
2023-01-04T22:02:03.263Z,6.21
2023-01-04T22:04:30.195Z,6.19
2023-01-04T22:06:57.172Z,6.18
2023-01-04T22:09:24.172Z,6.19
2023-01-04T22:11:50.971Z,6.12
2023-01-04T22:14:18.376Z,6.04
2023-01-04T22:16:45.071Z,5.92
2023-01-04T22:19:13.348Z,6.06
2023-01-04T22:21:40.916Z,6.06
2023-01-04T22:24:10.732Z,6.00
2023-01-04T22:26:37.695Z,5.98
2023-01-04T22:29:04.442Z,5.92
2023-01-04T22:31:31.321Z,5.66
2023-01-04T22:33:58.011Z,5.83
2023-01-04T22:36:24.728Z,5.97
2023-01-04T22:38:53.022Z,5.96
2023-01-04T22:41:21.462Z,5.92
2023-01-04T22:43:53.924Z,5.83
2023-01-04T22:46:20.580Z,5.89
2023-01-04T22:48:47.266Z,5.80
2023-01-04T22:51:16.618Z,5.76
2023-01-04T22:53:43.819Z,5.73
2023-01-04T22:56:22.353Z,5.64
2023-01-04T22:58:54.330Z,5.52
2023-01-04T23:01:28.212Z,5.52
2023-01-04T23:03:55.675Z,5.46
2023-01-04T23:06:24.342Z,5.47
2023-01-04T23:09:02.280Z,5.44
2023-01-04T23:11:30.403Z,5.42
2023-01-04T23:13:57.445Z,5.42
2023-01-04T23:16:31.500Z,5.23
2023-01-04T23:18:59.484Z,5.19
2023-01-04T23:21:26.053Z,5.21
2023-01-04T23:23:52.616Z,5.38
2023-01-04T23:26:21.485Z,5.31
2023-01-04T23:28:48.652Z,5.20
2023-01-04T23:31:19.398Z,5.35
2023-01-04T23:33:46.954Z,5.32
2023-01-04T23:36:20.145Z,5.31
2023-01-04T23:38:53.151Z,5.14
2023-01-04T23:41:20.364Z,5.09
2023-01-04T23:43:47.023Z,5.14
2023-01-04T23:46:17.909Z,5.13
2023-01-04T23:48:44.807Z,4.94
2023-01-04T23:51:14.695Z,5.01
2023-01-04T23:53:41.304Z,4.96
2023-01-04T23:56:13.958Z,4.93
2023-01-04T23:58:40.516Z,4.83
